createdAt,value
2023-05-06T00:00:28.272Z,10.85
2023-05-06T00:03:13.483Z,10.84
2023-05-06T00:05:42.713Z,10.84
2023-05-06T00:08:10.623Z,10.80
2023-05-06T00:10:38.556Z,10.80
2023-05-06T00:13:06.595Z,10.80
2023-05-06T00:15:35.334Z,10.77
2023-05-06T00:18:03.687Z,10.78
2023-05-06T00:20:32.301Z,10.79
2023-05-06T00:23:00.282Z,10.77
2023-05-06T00:25:28.254Z,10.78
2023-05-06T00:27:56.307Z,10.76
2023-05-06T00:30:25.706Z,10.74
2023-05-06T00:32:56.140Z,10.73
2023-05-06T00:35:24.450Z,10.71
2023-05-06T00:38:13.120Z,10.66
2023-05-06T00:40:41.205Z,10.58
2023-05-06T00:43:09.586Z,10.54
2023-05-06T00:45:38.438Z,10.51
2023-05-06T00:48:07.233Z,10.48
2023-05-06T00:50:35.907Z,10.45
2023-05-06T00:53:04.436Z,10.38
2023-05-06T00:55:32.613Z,10.28
2023-05-06T00:58:01.246Z,10.24
2023-05-06T01:00:29.234Z,10.21
2023-05-06T01:02:57.822Z,10.18
2023-05-06T01:05:27.328Z,10.17
2023-05-06T01:07:58.233Z,10.16
2023-05-06T01:10:35.949Z,10.18
2023-05-06T01:13:03.873Z,10.20
2023-05-06T01:15:31.810Z,10.21
2023-05-06T01:18:01.107Z,10.22
2023-05-06T01:20:30.965Z,10.24
2023-05-06T01:22:59.629Z,10.26
2023-05-06T01:25:27.614Z,10.27
2023-05-06T01:27:55.874Z,10.29
2023-05-06T01:30:28.372Z,10.32
2023-05-06T01:33:01.084Z,10.33
2023-05-06T01:35:49.458Z,10.31
2023-05-06T01:38:22.945Z,10.26
2023-05-06T01:40:54.492Z,10.23
2023-05-06T01:43:24.654Z,10.18
2023-05-06T01:45:54.265Z,10.09
2023-05-06T01:48:26.649Z,10.04
2023-05-06T01:50:55.945Z,9.99
2023-05-06T01:53:24.124Z,9.97
2023-05-06T01:55:52.058Z,9.94
2023-05-06T01:58:20.037Z,9.89
2023-05-06T02:00:48.159Z,9.84
2023-05-06T02:03:16.908Z,9.80
2023-05-06T02:05:45.155Z,9.72
2023-05-06T02:08:13.177Z,9.67
2023-05-06T02:10:41.235Z,9.66
2023-05-06T02:13:11.739Z,9.64
2023-05-06T02:15:40.021Z,9.62
2023-05-06T02:18:11.433Z,9.60
2023-05-06T02:20:39.546Z,9.51
2023-05-06T02:23:07.984Z,9.43
2023-05-06T02:25:35.934Z,9.35
2023-05-06T02:28:04.030Z,9.27
2023-05-06T02:30:32.437Z,9.21
2023-05-06T02:33:00.382Z,9.17
2023-05-06T02:35:28.604Z,9.16
2023-05-06T02:37:56.793Z,9.11
2023-05-06T02:40:24.722Z,9.07
2023-05-06T02:42:53.633Z,9.07
2023-05-06T02:45:21.737Z,9.07
2023-05-06T02:47:49.888Z,9.08
2023-05-06T02:50:18.236Z,9.06
2023-05-06T02:52:46.282Z,9.07
2023-05-06T02:55:14.520Z,9.09
2023-05-06T02:57:42.388Z,9.11
2023-05-06T03:00:14.008Z,9.13
2023-05-06T03:02:41.960Z,9.11
2023-05-06T03:05:10.423Z,9.03
2023-05-06T03:07:38.653Z,8.98
2023-05-06T03:10:07.415Z,8.84
2023-05-06T03:12:37.276Z,8.75
2023-05-06T03:15:06.060Z,8.72
2023-05-06T03:17:34.333Z,8.61
2023-05-06T03:20:03.066Z,8.56
2023-05-06T03:22:31.972Z,8.53
2023-05-06T03:24:59.909Z,8.48
2023-05-06T03:27:28.225Z,8.51
2023-05-06T03:29:58.954Z,8.53
2023-05-06T03:32:27.121Z,8.58
2023-05-06T03:34:55.685Z,8.61
2023-05-06T03:37:24.034Z,8.65
2023-05-06T03:39:54.892Z,8.71
2023-05-06T03:42:25.356Z,8.71
2023-05-06T03:44:53.730Z,8.65
2023-05-06T03:47:21.909Z,8.64
2023-05-06T03:49:50.096Z,8.66
2023-05-06T03:52:18.561Z,8.68
2023-05-06T03:54:46.627Z,8.72
2023-05-06T03:57:14.619Z,8.79
2023-05-06T03:59:42.590Z,8.77
2023-05-06T04:02:10.923Z,8.81
2023-05-06T04:04:39.349Z,8.82
2023-05-06T04:07:07.265Z,8.83
2023-05-06T04:09:35.286Z,8.95
2023-05-06T04:12:06.182Z,9.13
2023-05-06T04:14:35.390Z,9.38
2023-05-06T04:17:03.959Z,9.71
2023-05-06T04:19:32.262Z,10.02
2023-05-06T04:22:00.284Z,10.26
2023-05-06T04:24:31.645Z,10.52
2023-05-06T04:27:00.182Z,10.84
2023-05-06T04:29:28.951Z,11.01
2023-05-06T04:32:00.380Z,11.25
2023-05-06T04:34:29.196Z,11.60
2023-05-06T04:36:58.609Z,11.93
2023-05-06T04:39:54.559Z,12.15
2023-05-06T04:42:23.180Z,12.49
2023-05-06T04:44:56.440Z,12.71
2023-05-06T04:47:27.074Z,12.90
2023-05-06T04:49:56.184Z,12.98
2023-05-06T04:52:24.565Z,13.19
2023-05-06T04:54:52.659Z,13.43
2023-05-06T04:57:20.616Z,13.59
2023-05-06T04:59:48.617Z,13.72
2023-05-06T05:02:16.633Z,13.96
2023-05-06T05:04:44.865Z,14.04
2023-05-06T05:07:12.756Z,14.22
2023-05-06T05:09:41.032Z,14.29
2023-05-06T05:12:09.258Z,14.41
2023-05-06T05:14:39.505Z,14.63
2023-05-06T05:17:08.742Z,14.97
2023-05-06T05:19:38.306Z,15.07
2023-05-06T05:22:07.428Z,15.04
2023-05-06T05:24:35.546Z,15.10
2023-05-06T05:27:03.841Z,15.25
2023-05-06T05:29:31.912Z,15.40
2023-05-06T05:32:00.219Z,15.42
2023-05-06T05:34:28.263Z,15.51
2023-05-06T05:36:59.557Z,15.60
2023-05-06T05:39:27.471Z,15.73
2023-05-06T05:41:55.404Z,15.88
2023-05-06T05:44:23.734Z,15.98
2023-05-06T05:46:52.654Z,16.16
2023-05-06T05:49:21.112Z,16.20
2023-05-06T05:51:50.350Z,16.32
2023-05-06T05:54:18.866Z,16.52
2023-05-06T05:56:47.278Z,16.71
2023-05-06T05:59:15.520Z,16.70
2023-05-06T06:01:43.750Z,16.86
2023-05-06T06:04:12.040Z,16.90
2023-05-06T06:06:40.093Z,16.91
2023-05-06T06:09:09.127Z,16.88
2023-05-06T06:11:38.007Z,16.84
2023-05-06T06:14:07.055Z,16.56
2023-05-06T06:16:36.998Z,16.61
2023-05-06T06:19:05.301Z,16.69
2023-05-06T06:21:33.363Z,16.78
2023-05-06T06:24:02.021Z,16.81
2023-05-06T06:26:31.383Z,16.76
2023-05-06T06:29:00.646Z,16.76
2023-05-06T06:31:29.506Z,16.77
2023-05-06T06:33:57.694Z,16.82
2023-05-06T06:36:25.916Z,16.79
2023-05-06T06:38:53.872Z,16.79
2023-05-06T06:41:21.836Z,16.83
2023-05-06T06:43:49.894Z,16.78
2023-05-06T06:46:17.956Z,16.85
2023-05-06T06:48:46.043Z,16.92
2023-05-06T06:51:14.131Z,16.84
2023-05-06T06:53:43.000Z,16.77
2023-05-06T06:56:14.926Z,16.77
2023-05-06T06:58:43.023Z,16.84
2023-05-06T07:01:11.098Z,16.72
2023-05-06T07:03:39.167Z,16.78
2023-05-06T07:06:07.225Z,16.99
2023-05-06T07:08:35.244Z,17.17
2023-05-06T07:11:03.194Z,17.29
2023-05-06T07:13:31.396Z,17.37
2023-05-06T07:15:59.528Z,17.47
2023-05-06T07:18:29.459Z,17.63
2023-05-06T07:20:57.567Z,17.76
2023-05-06T07:23:25.563Z,17.78
2023-05-06T07:25:53.755Z,17.75
2023-05-06T07:28:21.917Z,17.87
2023-05-06T07:30:51.606Z,17.90
2023-05-06T07:33:19.526Z,17.99
2023-05-06T07:35:47.562Z,18.14
2023-05-06T07:38:15.560Z,18.23
2023-05-06T07:40:43.495Z,18.32
2023-05-06T07:43:11.474Z,18.41
2023-05-06T07:45:39.494Z,18.59
2023-05-06T07:48:07.807Z,18.64
2023-05-06T07:50:35.860Z,18.56
2023-05-06T07:53:04.206Z,18.55
2023-05-06T07:55:33.899Z,18.62
2023-05-06T07:58:03.271Z,18.69
2023-05-06T08:00:31.209Z,18.80
2023-05-06T08:02:59.253Z,18.91
2023-05-06T08:05:27.181Z,19.06
2023-05-06T08:07:55.882Z,19.13
2023-05-06T08:10:24.078Z,19.19
2023-05-06T08:12:52.442Z,19.32
2023-05-06T08:15:20.406Z,19.45
2023-05-06T08:17:48.571Z,19.56
2023-05-06T08:20:16.562Z,19.69
2023-05-06T08:22:44.448Z,19.75
2023-05-06T08:25:12.867Z,19.77
2023-05-06T08:27:41.119Z,19.67
2023-05-06T08:30:09.950Z,19.71
2023-05-06T08:32:38.975Z,19.70
2023-05-06T08:35:07.210Z,19.72
2023-05-06T08:37:35.138Z,19.79
2023-05-06T08:40:05.315Z,19.82
2023-05-06T08:42:34.583Z,19.86
2023-05-06T08:45:02.551Z,20.01
2023-05-06T08:47:30.610Z,20.18
2023-05-06T08:49:58.569Z,20.27
2023-05-06T08:52:26.566Z,20.35
2023-05-06T08:55:01.458Z,20.49
2023-05-06T08:57:30.893Z,20.61
2023-05-06T08:59:59.092Z,20.63
2023-05-06T09:02:27.660Z,20.51
2023-05-06T09:04:56.964Z,20.55
2023-05-06T09:07:25.679Z,20.66
2023-05-06T09:09:53.636Z,20.73
2023-05-06T09:12:21.549Z,20.77
2023-05-06T09:14:50.155Z,20.84
2023-05-06T09:17:26.810Z,20.94
2023-05-06T09:19:59.324Z,20.94
2023-05-06T09:22:28.740Z,21.01
2023-05-06T09:24:57.335Z,21.06
2023-05-06T09:27:32.694Z,21.14
2023-05-06T09:30:07.570Z,21.23
2023-05-06T09:32:38.144Z,21.31
2023-05-06T09:35:08.745Z,21.38
2023-05-06T09:37:36.928Z,21.45
2023-05-06T09:40:05.183Z,21.59
2023-05-06T09:42:33.304Z,21.57
2023-05-06T09:45:03.584Z,21.71
2023-05-06T09:47:37.673Z,21.78
2023-05-06T09:50:06.207Z,21.71
2023-05-06T09:52:34.083Z,21.71
2023-05-06T09:55:03.636Z,21.75
2023-05-06T09:57:32.573Z,21.70
2023-05-06T10:00:02.383Z,21.65
2023-05-06T10:02:41.436Z,21.59
2023-05-06T10:05:10.707Z,21.56
2023-05-06T10:07:39.536Z,21.78
2023-05-06T10:10:09.331Z,22.04
2023-05-06T10:12:37.575Z,22.29
2023-05-06T10:15:05.918Z,22.48
2023-05-06T10:17:34.674Z,22.69
2023-05-06T10:20:04.874Z,22.94
2023-05-06T10:22:42.040Z,23.11
2023-05-06T10:25:11.068Z,23.25
2023-05-06T10:27:42.056Z,23.12
2023-05-06T10:30:10.901Z,22.86
2023-05-06T10:32:42.070Z,22.89
2023-05-06T10:35:30.564Z,23.09
2023-05-06T10:37:59.939Z,23.21
2023-05-06T10:40:28.254Z,23.31
2023-05-06T10:43:15.248Z,23.53
2023-05-06T10:46:03.339Z,23.75
2023-05-06T10:48:31.569Z,23.75
2023-05-06T10:51:18.625Z,23.69
2023-05-06T10:54:07.120Z,23.53
2023-05-06T10:56:36.506Z,23.36
2023-05-06T10:59:08.543Z,23.42
2023-05-06T11:01:37.165Z,23.55
2023-05-06T11:04:15.732Z,23.55
2023-05-06T11:06:48.139Z,23.60
2023-05-06T11:09:16.896Z,23.42
2023-05-06T11:11:52.479Z,23.46
2023-05-06T11:14:29.463Z,23.32
2023-05-06T11:16:58.805Z,23.05
2023-05-06T11:19:27.257Z,22.64
2023-05-06T11:21:57.532Z,22.83
2023-05-06T11:24:26.979Z,23.17
2023-05-06T11:26:55.978Z,23.26
2023-05-06T11:29:24.839Z,23.47
2023-05-06T11:31:54.289Z,23.46
2023-05-06T11:34:24.023Z,23.72
2023-05-06T11:36:53.355Z,23.97
2023-05-06T11:39:21.458Z,24.09
2023-05-06T11:41:49.529Z,24.36
2023-05-06T11:44:24.683Z,24.32
2023-05-06T11:46:52.924Z,24.24
2023-05-06T11:49:21.079Z,23.78
2023-05-06T11:51:49.825Z,23.47
2023-05-06T11:54:20.474Z,23.16
2023-05-06T11:56:56.787Z,22.82
2023-05-06T11:59:32.044Z,23.04
2023-05-06T12:02:01.457Z,23.14
2023-05-06T12:04:37.140Z,23.04
2023-05-06T12:07:06.378Z,22.81
2023-05-06T12:09:36.173Z,22.51
2023-05-06T12:12:05.012Z,22.09
2023-05-06T12:14:33.209Z,22.19
2023-05-06T12:17:01.247Z,22.22
2023-05-06T12:19:29.505Z,22.20
2023-05-06T12:22:14.177Z,22.15
2023-05-06T12:24:42.066Z,21.97
2023-05-06T12:27:09.955Z,21.55
2023-05-06T12:29:37.943Z,21.57
2023-05-06T12:32:10.300Z,21.21
2023-05-06T12:34:39.515Z,21.02
2023-05-06T12:37:08.789Z,20.67
2023-05-06T12:39:37.792Z,20.46
2023-05-06T12:42:06.516Z,20.29
2023-05-06T12:44:38.558Z,20.09
2023-05-06T12:47:18.358Z,19.92
2023-05-06T12:49:53.921Z,19.81
2023-05-06T12:52:23.259Z,19.75
2023-05-06T12:54:52.937Z,19.68
2023-05-06T12:57:21.639Z,19.67
2023-05-06T12:59:50.225Z,19.73
2023-05-06T13:02:18.826Z,19.71
2023-05-06T13:04:47.155Z,19.70
2023-05-06T13:07:15.696Z,19.71
2023-05-06T13:09:44.644Z,19.78
2023-05-06T13:12:13.183Z,19.91
2023-05-06T13:14:41.177Z,20.01
2023-05-06T13:17:09.363Z,20.17
2023-05-06T13:19:37.808Z,20.42
2023-05-06T13:22:05.838Z,20.82
2023-05-06T13:24:33.905Z,21.21
2023-05-06T13:27:02.336Z,21.54
2023-05-06T13:29:30.546Z,21.92
2023-05-06T13:31:58.515Z,22.05
2023-05-06T13:34:27.042Z,22.11
2023-05-06T13:36:56.882Z,22.08
2023-05-06T13:39:25.313Z,22.02
2023-05-06T13:41:54.321Z,21.81
2023-05-06T13:44:22.623Z,21.63
2023-05-06T13:46:50.918Z,21.46
2023-05-06T13:49:19.405Z,21.01
2023-05-06T13:51:47.411Z,21.35
2023-05-06T13:54:15.613Z,21.29
2023-05-06T13:56:43.598Z,21.22
2023-05-06T13:59:13.508Z,21.40
2023-05-06T14:01:42.360Z,21.38
2023-05-06T14:04:10.455Z,21.25
2023-05-06T14:06:38.997Z,21.51
2023-05-06T14:09:07.425Z,21.75
2023-05-06T14:11:35.445Z,21.94
2023-05-06T14:14:03.456Z,21.98
2023-05-06T14:16:31.520Z,22.06
2023-05-06T14:18:59.597Z,22.38
2023-05-06T14:21:27.434Z,22.33
2023-05-06T14:23:55.927Z,22.23
2023-05-06T14:26:23.918Z,22.30
2023-05-06T14:28:51.852Z,22.25
2023-05-06T14:31:19.906Z,22.38
2023-05-06T14:33:47.779Z,22.34
2023-05-06T14:36:19.801Z,22.20
2023-05-06T14:38:47.728Z,22.23
2023-05-06T14:41:15.708Z,22.31
2023-05-06T14:43:43.683Z,22.22
2023-05-06T14:46:11.960Z,22.37
2023-05-06T14:48:40.020Z,22.47
2023-05-06T14:51:07.974Z,22.45
2023-05-06T14:53:35.980Z,22.47
2023-05-06T14:56:04.034Z,22.26
2023-05-06T14:58:32.011Z,22.11
2023-05-06T15:01:00.002Z,21.98
2023-05-06T15:03:27.967Z,21.71
2023-05-06T15:05:56.118Z,21.52
2023-05-06T15:08:24.139Z,21.15
2023-05-06T15:10:52.096Z,20.80
2023-05-06T15:13:19.981Z,20.73
2023-05-06T15:15:47.982Z,20.62
2023-05-06T15:18:16.464Z,20.81
2023-05-06T15:20:44.424Z,20.72
2023-05-06T15:23:12.362Z,20.43
2023-05-06T15:25:40.519Z,20.57
2023-05-06T15:28:08.803Z,20.56
2023-05-06T15:30:37.397Z,20.40
2023-05-06T15:33:05.714Z,20.35
2023-05-06T15:35:33.645Z,20.46
2023-05-06T15:38:03.308Z,20.51
2023-05-06T15:40:31.248Z,20.51
2023-05-06T15:42:59.516Z,20.51
2023-05-06T15:45:27.764Z,20.47
2023-05-06T15:47:56.326Z,20.43
2023-05-06T15:50:32.988Z,20.28
2023-05-06T15:53:02.612Z,20.12
2023-05-06T15:55:35.055Z,20.04
2023-05-06T15:58:04.711Z,19.88
2023-05-06T16:00:32.961Z,19.78
2023-05-06T16:03:01.151Z,19.69
2023-05-06T16:05:29.333Z,19.60
2023-05-06T16:07:57.421Z,19.58
2023-05-06T16:10:26.019Z,19.49
2023-05-06T16:12:54.105Z,19.58
2023-05-06T16:15:21.982Z,19.51
2023-05-06T16:17:49.876Z,19.41
2023-05-06T16:20:17.955Z,19.35
2023-05-06T16:22:52.815Z,19.22
2023-05-06T16:25:20.724Z,19.14
2023-05-06T16:27:48.994Z,19.16
2023-05-06T16:30:17.180Z,19.12
2023-05-06T16:32:45.178Z,19.10
2023-05-06T16:35:13.150Z,19.15
2023-05-06T16:37:41.278Z,19.18
2023-05-06T16:40:09.775Z,19.19
2023-05-06T16:42:37.914Z,19.04
2023-05-06T16:45:06.780Z,18.71
2023-05-06T16:47:34.985Z,18.54
2023-05-06T16:50:04.008Z,18.33
2023-05-06T16:52:31.924Z,17.88
2023-05-06T16:54:59.930Z,17.67
2023-05-06T16:57:27.933Z,17.37
2023-05-06T16:59:55.987Z,17.36
2023-05-06T17:02:24.141Z,17.09
2023-05-06T17:04:52.151Z,17.04
2023-05-06T17:07:20.155Z,16.98
2023-05-06T17:09:48.050Z,16.95
2023-05-06T17:12:16.400Z,16.89
2023-05-06T17:14:44.481Z,16.85
2023-05-06T17:17:12.456Z,16.77
2023-05-06T17:19:40.347Z,16.64
2023-05-06T17:22:08.307Z,16.69
2023-05-06T17:24:36.251Z,16.73
2023-05-06T17:27:04.318Z,16.76
2023-05-06T17:29:32.341Z,16.87
2023-05-06T17:32:00.333Z,16.85
2023-05-06T17:34:28.297Z,16.77
2023-05-06T17:36:56.417Z,16.65
2023-05-06T17:39:24.337Z,16.48
2023-05-06T17:41:52.895Z,16.20
2023-05-06T17:44:20.867Z,16.17
2023-05-06T17:46:48.836Z,16.09
2023-05-06T17:49:16.824Z,16.06
2023-05-06T17:51:46.367Z,16.00
2023-05-06T17:54:14.359Z,15.97
2023-05-06T17:56:42.355Z,15.92
2023-05-06T17:59:11.457Z,15.87
2023-05-06T18:01:39.850Z,15.84
2023-05-06T18:04:07.883Z,15.81
2023-05-06T18:06:36.310Z,15.78
2023-05-06T18:09:04.345Z,15.74
2023-05-06T18:11:32.360Z,15.66
2023-05-06T18:14:00.575Z,15.50
2023-05-06T18:16:28.560Z,15.36
2023-05-06T18:18:56.550Z,15.20
2023-05-06T18:21:24.591Z,15.10
2023-05-06T18:23:58.727Z,15.00
2023-05-06T18:26:44.815Z,14.94
2023-05-06T18:29:13.657Z,14.88
2023-05-06T18:31:41.991Z,14.84
2023-05-06T18:34:10.062Z,14.84
2023-05-06T18:36:38.029Z,14.74
2023-05-06T18:39:07.122Z,14.68
2023-05-06T18:41:35.305Z,14.62
2023-05-06T18:44:04.497Z,14.58
2023-05-06T18:46:32.903Z,14.51
2023-05-06T18:49:01.107Z,14.46
2023-05-06T18:51:29.026Z,14.41
2023-05-06T18:53:56.953Z,14.42
2023-05-06T18:56:24.872Z,14.39
2023-05-06T18:58:52.894Z,14.35
2023-05-06T19:01:21.243Z,14.34
2023-05-06T19:03:49.271Z,14.38
2023-05-06T19:06:17.589Z,14.41
2023-05-06T19:08:45.545Z,14.45
2023-05-06T19:11:18.203Z,14.43
2023-05-06T19:13:46.467Z,14.40
2023-05-06T19:16:14.853Z,14.42
2023-05-06T19:18:43.106Z,14.38
2023-05-06T19:21:15.078Z,14.39
2023-05-06T19:23:43.067Z,14.35
2023-05-06T19:26:12.081Z,14.28
2023-05-06T19:28:40.597Z,14.24
2023-05-06T19:31:12.148Z,14.20
2023-05-06T19:33:41.015Z,14.06
2023-05-06T19:36:09.489Z,13.99
2023-05-06T19:38:37.796Z,13.92
2023-05-06T19:41:06.264Z,13.86
2023-05-06T19:43:34.261Z,13.81
2023-05-06T19:46:02.343Z,13.71
2023-05-06T19:48:30.455Z,13.61
2023-05-06T19:50:58.578Z,13.59
2023-05-06T19:53:26.581Z,13.55
2023-05-06T19:55:59.354Z,13.50
2023-05-06T19:58:27.273Z,13.47
2023-05-06T20:00:55.168Z,13.46
2023-05-06T20:03:23.148Z,13.49
2023-05-06T20:05:51.340Z,13.48
2023-05-06T20:08:19.383Z,13.55
2023-05-06T20:10:48.348Z,13.58
2023-05-06T20:13:17.980Z,13.57
2023-05-06T20:15:46.073Z,13.58
2023-05-06T20:18:14.564Z,13.60
2023-05-06T20:20:43.365Z,13.58
2023-05-06T20:23:11.354Z,13.63
2023-05-06T20:25:39.364Z,13.64
2023-05-06T20:28:07.658Z,13.66
2023-05-06T20:30:35.717Z,13.64
2023-05-06T20:33:04.008Z,13.62
2023-05-06T20:35:38.127Z,13.65
2023-05-06T20:38:06.822Z,13.69
2023-05-06T20:40:35.972Z,13.72
2023-05-06T20:43:04.111Z,13.72
2023-05-06T20:45:32.174Z,13.69
2023-05-06T20:48:00.391Z,13.73
2023-05-06T20:50:30.051Z,13.72
2023-05-06T20:52:59.050Z,13.74
2023-05-06T20:55:27.090Z,13.75
2023-05-06T20:57:55.019Z,13.83
2023-05-06T21:00:22.967Z,13.90
2023-05-06T21:02:51.003Z,13.97
2023-05-06T21:05:19.107Z,14.06
2023-05-06T21:07:47.115Z,14.15
2023-05-06T21:10:15.101Z,14.18
2023-05-06T21:12:49.826Z,14.22
2023-05-06T21:15:18.090Z,14.20
2023-05-06T21:17:46.518Z,14.22
2023-05-06T21:20:14.543Z,14.19
2023-05-06T21:22:42.445Z,14.23
2023-05-06T21:25:13.253Z,14.19
2023-05-06T21:27:41.476Z,14.20
2023-05-06T21:30:09.707Z,14.16
2023-05-06T21:32:37.985Z,14.17
2023-05-06T21:35:06.219Z,14.13
2023-05-06T21:37:35.738Z,14.11
2023-05-06T21:40:04.678Z,14.07
2023-05-06T21:42:32.550Z,14.02
2023-05-06T21:45:00.999Z,14.00
2023-05-06T21:47:28.942Z,13.98
2023-05-06T21:49:56.992Z,13.99
2023-05-06T21:52:24.994Z,13.96
2023-05-06T21:54:52.928Z,13.88
2023-05-06T21:57:20.819Z,13.87
2023-05-06T21:59:48.757Z,13.79
2023-05-06T22:02:16.824Z,13.72
2023-05-06T22:04:44.837Z,13.72
2023-05-06T22:07:12.706Z,13.68
2023-05-06T22:09:40.674Z,13.58
2023-05-06T22:12:11.633Z,13.52
2023-05-06T22:14:41.626Z,13.43
2023-05-06T22:17:10.742Z,13.40
2023-05-06T22:19:39.038Z,13.34
2023-05-06T22:22:07.341Z,13.29
2023-05-06T22:24:35.418Z,13.26
2023-05-06T22:27:03.382Z,13.21
2023-05-06T22:29:31.466Z,13.15
2023-05-06T22:31:59.493Z,13.06
2023-05-06T22:34:27.520Z,13.01
2023-05-06T22:36:57.617Z,12.98
2023-05-06T22:39:26.632Z,12.94
2023-05-06T22:41:54.503Z,12.93
2023-05-06T22:44:22.395Z,12.95
2023-05-06T22:46:50.555Z,12.95
2023-05-06T22:49:19.537Z,12.97
2023-05-06T22:51:47.567Z,12.96
2023-05-06T22:54:15.605Z,12.94
2023-05-06T22:56:43.584Z,12.96
2023-05-06T22:59:11.525Z,12.99
2023-05-06T23:01:39.558Z,13.00
2023-05-06T23:04:07.551Z,13.03
2023-05-06T23:06:35.856Z,13.11
2023-05-06T23:09:03.979Z,13.13
2023-05-06T23:11:31.994Z,13.13
2023-05-06T23:13:59.897Z,13.09
2023-05-06T23:16:29.762Z,13.09
2023-05-06T23:18:58.146Z,13.09
2023-05-06T23:21:26.914Z,13.00
2023-05-06T23:23:55.465Z,12.95
2023-05-06T23:26:24.105Z,12.95
2023-05-06T23:28:52.352Z,12.80
2023-05-06T23:33:48.419Z,12.69
2023-05-06T23:36:16.245Z,12.65
2023-05-06T23:38:44.225Z,12.60
2023-05-06T23:41:12.317Z,12.55
2023-05-06T23:43:40.257Z,12.49
2023-05-06T23:46:08.250Z,12.48
2023-05-06T23:48:37.581Z,12.48
2023-05-06T23:51:05.628Z,12.45
2023-05-06T23:53:33.510Z,12.37
2023-05-06T23:56:01.859Z,12.36
2023-05-06T23:58:29.886Z,12.33
